Pintada, New Mexico
Current Conditions -  °F | °C
As of 1:53 AM on Monday 24 Nov 2014 (Local Time) from KCQC Reporting Station
Clear Clear  
Wind Chill: -14°   Ceiling: Unl
Heat Index: -7°   Visibility: 10mi
Dew Point: -14°   Wind: 15mph
Humidity: 55%   Direction: 300°WNW
Pressure: 29.99"   Gusts: NA
Location:  34.8581°N, 104.704°W
Report Text: KCQC 240853Z AUTO 30013KT 10SM CLR M07/M14 A2999 RMK AO2 SLP164 T10671144 50005
Loading
Personal Weather Stations






























Interactive Weather Map New forecast layout! Learn more

10-Day Weather Forecast

Advertisements
Track Severe Weather on mobile